DADDY EDLW-

Flight info

Callsign DADDY
Flight time N/A
Altitude
Route
Aircraft AN225

Departure

Time 2026-05-06 19:12
Airport Dortmund Airport (EDLW)

Arrival

Time N/A
Airport -
Time Latitude Longitude Altitude Speed Heading
2026-05-06 19:08 51.51433 7.60609 432 ft 13 kts 241°
2026-05-06 19:08 51.51430 7.60601 426 ft 0 kts 241°
2026-05-06 19:10 51.51426 7.60591 426 ft 8 kts 241°
2026-05-06 19:11 51.51360 7.60370 432 ft 20 kts 270°
2026-05-06 19:11 51.51415 7.60253 431 ft 13 kts 331°
2026-05-06 19:11 51.51479 7.60255 424 ft 16 kts 31°
2026-05-06 19:11 51.51554 7.60427 425 ft 31 kts 60°
2026-05-06 19:12 51.51821 7.61190 424 ft 127 kts 60°
2026-05-06 19:12 51.52422 7.62866 528 ft 213 kts 60°
2026-05-06 19:12 51.52755 7.65133 1804 ft 210 kts 126°
2026-05-06 19:12 51.51452 7.65203 1165 ft 233 kts 239°
2026-05-06 19:13 51.51035 7.62720 660 ft 230 kts 259°
2026-05-06 19:13 51.50736 7.60556 1137 ft 173 kts 254°
2026-05-06 19:13 51.50192 7.58781 770 ft 184 kts 225°
2026-05-06 19:13 51.48996 7.58084 1047 ft 210 kts 159°
2026-05-06 19:14 51.47841 7.59688 1209 ft 243 kts 114°
2026-05-06 19:14 51.47838 7.62403 1998 ft 241 kts 46°
2026-05-06 19:14 51.49303 7.63663 1685 ft 288 kts 348°
2026-05-06 19:14 51.50893 7.61446 939 ft 328 kts 278°
2026-05-06 19:15 51.50109 7.58321 779 ft 315 kts 211°
2026-05-06 19:15 51.48271 7.57074 1729 ft 263 kts 198°
2026-05-06 19:15 51.46565 7.56928 2062 ft 241 kts 155°
2026-05-06 19:15 51.45445 7.58781 1685 ft 242 kts 96°
2026-05-06 19:16 51.45799 7.61390 983 ft 253 kts 41°
2026-05-06 19:16 51.47308 7.62235 950 ft 228 kts 339°
2026-05-06 19:16 51.48682 7.61186 772 ft 223 kts 329°
2026-05-06 19:16 51.49970 7.59440 1038 ft 247 kts 307°
2026-05-06 19:17 51.51269 7.57916 773 ft 236 kts 335°
2026-05-06 19:17 51.52479 7.55952 1539 ft 267 kts 275°
2026-05-06 19:17 51.51511 7.53775 2527 ft 297 kts 179°
2026-05-06 19:17 51.49935 7.55555 1783 ft 313 kts 85°
2026-05-06 19:18 51.50726 7.58323 688 ft 245 kts 56°
2026-05-06 19:18 51.51528 7.60344 423 ft 186 kts 59°